createdAt,value
2023-02-23T00:02:59.186Z,100.00
2023-02-23T00:06:13.685Z,100.00
2023-02-23T00:09:31.007Z,100.00
2023-02-23T00:12:43.062Z,100.00
2023-02-23T00:15:55.463Z,100.00
2023-02-23T00:19:08.621Z,100.00
2023-02-23T00:22:20.715Z,100.00
2023-02-23T00:25:33.928Z,100.00
2023-02-23T00:28:47.556Z,100.00
2023-02-23T00:32:00.123Z,100.00
2023-02-23T00:35:17.472Z,100.00
2023-02-23T00:38:31.796Z,100.00
2023-02-23T00:41:46.314Z,100.00
2023-02-23T00:44:58.390Z,100.00
2023-02-23T00:48:13.803Z,100.00
2023-02-23T00:51:27.014Z,100.00
2023-02-23T00:54:38.924Z,100.00
2023-02-23T00:57:52.537Z,100.00
2023-02-23T01:01:05.536Z,100.00
2023-02-23T01:04:19.153Z,100.00
2023-02-23T01:07:32.729Z,100.00
2023-02-23T01:10:51.046Z,100.00
2023-02-23T01:14:05.444Z,100.00
2023-02-23T01:17:17.980Z,100.00
2023-02-23T01:20:42.399Z,100.00
2023-02-23T01:23:57.765Z,100.00
2023-02-23T01:27:09.837Z,100.00
2023-02-23T01:30:22.930Z,100.00
2023-02-23T01:40:59.098Z,100.00
2023-02-23T01:44:16.713Z,100.00
2023-02-23T01:47:29.902Z,100.00
2023-02-23T01:50:57.637Z,100.00
2023-02-23T01:54:16.004Z,100.00
2023-02-23T01:57:29.960Z,100.00
2023-02-23T02:00:42.956Z,100.00
2023-02-23T02:04:00.140Z,100.00
2023-02-23T02:07:14.257Z,100.00
2023-02-23T02:10:50.368Z,100.00
2023-02-23T02:14:08.714Z,100.00
2023-02-23T02:17:37.873Z,100.00
2023-02-23T02:21:27.368Z,100.00
2023-02-23T02:25:26.643Z,100.00
2023-02-23T02:30:02.665Z,100.00
2023-02-23T02:33:40.498Z,100.00
2023-02-23T02:37:14.643Z,100.00
2023-02-23T02:40:32.909Z,100.00
2023-02-23T02:43:52.522Z,100.00
2023-02-23T02:47:08.968Z,100.00
2023-02-23T02:50:28.324Z,100.00
2023-02-23T02:53:48.240Z,100.00
2023-02-23T02:57:04.526Z,100.00
2023-02-23T03:00:39.731Z,100.00
2023-02-23T03:04:08.291Z,100.00
2023-02-23T03:07:39.742Z,100.00
2023-02-23T03:11:15.189Z,100.00
2023-02-23T03:14:51.891Z,100.00
2023-02-23T03:18:25.219Z,100.00
2023-02-23T03:21:58.621Z,100.00
2023-02-23T03:25:31.052Z,100.00
2023-02-23T03:29:04.763Z,100.00
2023-02-23T03:32:37.122Z,100.00
2023-02-23T03:36:09.848Z,100.00
2023-02-23T03:39:44.975Z,100.00
2023-02-23T03:43:17.358Z,100.00
2023-02-23T03:46:48.247Z,100.00
2023-02-23T03:50:17.646Z,100.00
2023-02-23T03:53:50.312Z,100.00
2023-02-23T03:57:20.389Z,100.00
2023-02-23T04:00:51.983Z,100.00
2023-02-23T04:04:20.612Z,100.00
2023-02-23T04:07:47.369Z,100.00
2023-02-23T04:11:19.573Z,100.00
2023-02-23T04:14:33.876Z,100.00
2023-02-23T04:17:46.326Z,100.00
2023-02-23T04:20:59.152Z,100.00
2023-02-23T04:24:12.942Z,100.00
2023-02-23T04:27:25.442Z,100.00
2023-02-23T04:30:50.463Z,100.00
2023-02-23T04:34:04.880Z,100.00
2023-02-23T04:37:16.989Z,100.00
2023-02-23T04:47:49.646Z,100.00
2023-02-23T04:51:02.282Z,100.00
2023-02-23T04:57:55.490Z,100.00
2023-02-23T05:01:43.194Z,100.00
2023-02-23T05:04:55.152Z,100.00
2023-02-23T05:08:07.115Z,100.00
2023-02-23T05:11:19.385Z,100.00
2023-02-23T05:14:42.349Z,100.00
2023-02-23T05:17:55.061Z,100.00
2023-02-23T05:21:12.530Z,100.00
2023-02-23T05:24:25.650Z,100.00
2023-02-23T05:27:50.399Z,100.00
2023-02-23T05:42:23.355Z,100.00
2023-02-23T05:45:35.071Z,100.00
2023-02-23T05:48:47.126Z,100.00
2023-02-23T05:52:09.797Z,100.00
2023-02-23T05:55:22.583Z,100.00
2023-02-23T06:10:40.508Z,100.00
2023-02-23T06:13:52.891Z,100.00
2023-02-23T06:17:05.724Z,100.00
2023-02-23T06:20:19.860Z,100.00
2023-02-23T06:23:32.072Z,100.00
2023-02-23T06:26:44.553Z,100.00
2023-02-23T06:29:56.894Z,100.00
2023-02-23T06:33:10.275Z,100.00
2023-02-23T06:36:34.550Z,100.00
2023-02-23T06:39:48.064Z,100.00
2023-02-23T06:43:00.662Z,100.00
2023-02-23T06:46:13.984Z,100.00
2023-02-23T06:49:25.997Z,100.00
2023-02-23T06:52:38.269Z,100.00
2023-02-23T06:55:50.352Z,100.00
2023-02-23T06:59:02.440Z,100.00
2023-02-23T07:02:16.485Z,100.00
2023-02-23T07:05:28.484Z,100.00
2023-02-23T07:08:41.357Z,100.00
2023-02-23T07:11:53.330Z,100.00
2023-02-23T07:15:05.242Z,100.00
2023-02-23T07:18:17.190Z,100.00
2023-02-23T07:21:29.094Z,100.00
2023-02-23T07:24:41.720Z,100.00
2023-02-23T07:27:54.234Z,100.00
2023-02-23T07:31:07.598Z,100.00
2023-02-23T07:34:19.768Z,100.00
2023-02-23T07:37:31.681Z,99.95
2023-02-23T07:40:43.704Z,99.96
2023-02-23T07:43:55.781Z,99.32
2023-02-23T07:47:07.811Z,100.00
2023-02-23T07:50:20.437Z,99.87
2023-02-23T07:53:32.606Z,99.21
2023-02-23T07:56:44.611Z,99.11
2023-02-23T07:59:56.632Z,98.75
2023-02-23T08:03:10.553Z,98.71
2023-02-23T08:06:23.305Z,98.31
2023-02-23T08:09:35.548Z,98.21
2023-02-23T08:12:47.513Z,96.68
2023-02-23T08:15:59.484Z,97.43
2023-02-23T08:19:11.529Z,97.38
2023-02-23T08:22:23.434Z,96.11
2023-02-23T08:25:35.680Z,95.34
2023-02-23T08:28:47.663Z,95.15
2023-02-23T08:32:00.185Z,94.01
2023-02-23T08:35:14.105Z,93.10
2023-02-23T08:42:17.728Z,90.88
2023-02-23T08:45:29.774Z,89.62
2023-02-23T08:48:42.217Z,88.10
2023-02-23T08:51:54.063Z,86.18
2023-02-23T08:55:06.008Z,85.16
2023-02-23T08:58:18.236Z,83.82
2023-02-23T09:01:41.055Z,82.65
2023-02-23T09:04:54.137Z,82.75
2023-02-23T09:08:07.287Z,82.66
2023-02-23T09:11:19.601Z,82.29
2023-02-23T09:14:32.457Z,81.82
2023-02-23T09:17:45.443Z,79.67
2023-02-23T09:20:57.727Z,79.92
2023-02-23T09:24:10.122Z,78.72
2023-02-23T09:27:22.331Z,78.12
2023-02-23T09:30:34.681Z,78.44
2023-02-23T09:33:47.241Z,78.16
2023-02-23T09:36:59.390Z,79.76
2023-02-23T09:40:14.917Z,77.41
2023-02-23T09:43:33.735Z,79.04
2023-02-23T09:46:51.232Z,80.44
2023-02-23T09:50:06.612Z,82.46
2023-02-23T09:53:29.421Z,80.47
2023-02-23T09:56:46.196Z,80.09
2023-02-23T09:59:58.127Z,81.10
2023-02-23T10:03:25.674Z,80.64
2023-02-23T10:06:38.371Z,79.22
2023-02-23T10:10:15.094Z,80.55
2023-02-23T10:13:37.897Z,79.80
2023-02-23T10:17:02.524Z,81.20
2023-02-23T10:20:26.403Z,80.69
2023-02-23T10:23:42.932Z,80.18
2023-02-23T10:26:58.621Z,80.59
2023-02-23T10:30:20.944Z,79.84
2023-02-23T10:33:39.726Z,81.89
2023-02-23T10:36:56.401Z,80.24
2023-02-23T10:40:09.332Z,83.14
2023-02-23T10:43:21.670Z,80.89
2023-02-23T10:46:41.540Z,80.79
2023-02-23T10:49:55.439Z,80.41
2023-02-23T10:53:16.602Z,82.13
2023-02-23T10:56:31.151Z,81.29
2023-02-23T10:59:43.525Z,82.04
2023-02-23T11:02:55.597Z,81.21
2023-02-23T11:06:08.589Z,79.30
2023-02-23T11:09:45.629Z,80.55
2023-02-23T11:12:49.954Z,79.48
2023-02-23T11:16:10.486Z,77.36
2023-02-23T11:19:28.750Z,78.66
2023-02-23T11:22:43.574Z,76.74
2023-02-23T11:26:00.063Z,75.71
2023-02-23T11:29:18.354Z,75.96
2023-02-23T11:32:36.376Z,75.76
2023-02-23T11:35:48.606Z,76.23
2023-02-23T11:39:16.004Z,75.23
2023-02-23T11:42:27.982Z,75.33
2023-02-23T11:45:45.733Z,74.51
2023-02-23T11:49:04.118Z,75.15
2023-02-23T11:52:24.236Z,74.86
2023-02-23T11:55:37.359Z,73.82
2023-02-23T11:58:54.036Z,75.16
2023-02-23T12:02:15.665Z,74.72
2023-02-23T12:05:30.861Z,75.18
2023-02-23T12:08:52.454Z,75.01
2023-02-23T12:12:09.160Z,73.51
2023-02-23T12:15:28.297Z,75.21
2023-02-23T12:18:53.045Z,77.83
2023-02-23T12:22:14.050Z,74.81
2023-02-23T12:25:32.246Z,76.74
2023-02-23T12:28:49.644Z,76.15
2023-02-23T12:32:08.415Z,77.31
2023-02-23T12:35:29.514Z,75.93
2023-02-23T12:38:51.121Z,77.60
2023-02-23T12:42:11.458Z,77.39
2023-02-23T12:45:32.710Z,78.58
2023-02-23T12:48:52.999Z,78.11
2023-02-23T12:52:11.639Z,77.40
2023-02-23T12:55:29.961Z,79.06
2023-02-23T12:58:50.172Z,77.57
2023-02-23T13:02:07.957Z,77.79
2023-02-23T13:05:29.384Z,78.40
2023-02-23T13:08:56.236Z,80.10
2023-02-23T13:12:27.412Z,78.86
2023-02-23T13:15:51.323Z,78.85
2023-02-23T13:19:10.552Z,79.00
2023-02-23T13:22:36.603Z,79.64
2023-02-23T13:25:57.581Z,79.61
2023-02-23T13:29:14.697Z,78.49
2023-02-23T13:32:33.117Z,77.11
2023-02-23T13:35:45.905Z,78.61
2023-02-23T13:39:24.715Z,80.42
2023-02-23T13:42:49.720Z,79.88
2023-02-23T13:46:28.480Z,80.97
2023-02-23T13:49:48.806Z,79.36
2023-02-23T13:53:06.868Z,82.29
2023-02-23T13:56:24.312Z,81.64
2023-02-23T13:59:47.763Z,80.33
2023-02-23T14:03:02.127Z,80.77
2023-02-23T14:06:19.240Z,81.26
2023-02-23T14:09:38.964Z,81.17
2023-02-23T14:13:10.772Z,82.03
2023-02-23T14:16:25.885Z,81.60
2023-02-23T14:19:45.582Z,82.45
2023-02-23T14:23:37.326Z,81.92
2023-02-23T14:27:08.544Z,82.62
2023-02-23T14:30:32.364Z,82.13
2023-02-23T14:33:55.315Z,82.59
2023-02-23T14:37:22.020Z,83.32
2023-02-23T14:40:38.995Z,82.53
2023-02-23T14:43:51.058Z,82.30
2023-02-23T14:47:07.796Z,83.03
2023-02-23T14:50:27.819Z,84.05
2023-02-23T14:53:40.543Z,84.19
2023-02-23T14:56:58.394Z,83.68
2023-02-23T15:00:22.288Z,83.66
2023-02-23T15:03:34.913Z,84.48
2023-02-23T15:06:51.073Z,84.34
2023-02-23T15:10:07.219Z,83.80
2023-02-23T15:13:25.574Z,85.22
2023-02-23T15:16:40.489Z,86.09
2023-02-23T15:19:58.011Z,84.95
2023-02-23T15:23:11.084Z,86.84
2023-02-23T15:26:33.288Z,87.19
2023-02-23T15:29:45.699Z,87.47
2023-02-23T15:33:08.234Z,87.82
2023-02-23T15:36:27.695Z,89.13
2023-02-23T15:39:46.040Z,89.02
2023-02-23T15:43:01.713Z,88.58
2023-02-23T15:46:17.038Z,88.91
2023-02-23T15:49:38.583Z,88.98
2023-02-23T15:52:56.309Z,90.08
2023-02-23T15:56:16.148Z,90.04
2023-02-23T15:59:35.220Z,89.88
2023-02-23T16:02:49.907Z,90.96
2023-02-23T16:06:11.995Z,91.24
2023-02-23T16:09:35.480Z,91.71
2023-02-23T16:12:49.256Z,91.41
2023-02-23T16:16:02.850Z,92.37
2023-02-23T16:19:19.640Z,92.76
2023-02-23T16:22:33.516Z,93.40
2023-02-23T16:25:47.922Z,94.00
2023-02-23T16:29:05.125Z,93.18
2023-02-23T16:32:23.157Z,93.16
2023-02-23T16:35:45.427Z,93.79
2023-02-23T16:39:06.955Z,94.12
2023-02-23T16:42:25.384Z,94.18
2023-02-23T16:45:39.417Z,94.32
2023-02-23T16:48:51.866Z,94.51
2023-02-23T16:52:04.719Z,94.68
2023-02-23T16:55:23.229Z,95.54
2023-02-23T16:58:36.125Z,95.16
2023-02-23T17:01:50.351Z,95.64
2023-02-23T17:05:02.585Z,95.81
2023-02-23T17:08:14.971Z,95.41
2023-02-23T17:11:27.270Z,95.08
2023-02-23T17:14:39.528Z,96.53
2023-02-23T17:17:53.368Z,96.93
2023-02-23T17:21:08.479Z,96.81
2023-02-23T17:24:22.697Z,96.93
2023-02-23T17:27:35.074Z,96.77
2023-02-23T17:30:49.555Z,96.46
2023-02-23T17:34:02.238Z,96.09
2023-02-23T17:37:14.584Z,96.25
2023-02-23T17:40:33.482Z,97.81
2023-02-23T17:43:45.769Z,98.14
2023-02-23T17:46:58.021Z,98.47
2023-02-23T17:50:12.005Z,98.27
2023-02-23T17:53:24.332Z,98.25
2023-02-23T17:56:36.488Z,97.86
2023-02-23T17:59:48.609Z,98.33
2023-02-23T18:03:01.019Z,98.52
2023-02-23T18:06:16.959Z,98.39
2023-02-23T18:09:29.192Z,98.48
2023-02-23T18:12:42.038Z,98.75
2023-02-23T18:15:58.909Z,99.23
2023-02-23T18:19:11.482Z,99.10
2023-02-23T18:22:24.548Z,99.55
2023-02-23T18:25:38.234Z,100.00
2023-02-23T18:28:51.442Z,100.00
2023-02-23T18:32:05.528Z,100.00
2023-02-23T18:35:18.979Z,100.00
2023-02-23T18:38:31.335Z,100.00
2023-02-23T18:41:44.131Z,100.00
2023-02-23T18:44:56.592Z,100.00
2023-02-23T18:48:10.925Z,100.00
2023-02-23T18:51:23.684Z,100.00
2023-02-23T18:54:35.929Z,100.00
2023-02-23T18:57:48.730Z,100.00
2023-02-23T19:01:00.998Z,100.00
2023-02-23T19:04:15.038Z,100.00
2023-02-23T19:07:27.259Z,100.00
2023-02-23T19:10:39.565Z,100.00
2023-02-23T19:13:53.611Z,100.00
2023-02-23T19:17:05.822Z,100.00
2023-02-23T19:20:19.976Z,100.00
2023-02-23T19:23:32.673Z,100.00
2023-02-23T19:26:45.267Z,100.00
2023-02-23T19:29:57.671Z,100.00
2023-02-23T19:33:10.207Z,100.00
2023-02-23T19:36:27.250Z,100.00
2023-02-23T19:39:40.440Z,100.00
2023-02-23T19:42:53.471Z,100.00
2023-02-23T19:46:10.720Z,100.00
2023-02-23T19:49:23.336Z,100.00
2023-02-23T19:52:35.632Z,100.00
2023-02-23T19:55:49.629Z,100.00
2023-02-23T19:59:04.299Z,100.00
2023-02-23T20:02:17.523Z,100.00
2023-02-23T20:05:31.568Z,100.00
2023-02-23T20:08:44.607Z,100.00
2023-02-23T20:11:56.791Z,100.00
2023-02-23T20:15:10.788Z,100.00
2023-02-23T20:18:23.457Z,100.00
2023-02-23T20:21:38.109Z,100.00
2023-02-23T20:24:51.099Z,100.00
2023-02-23T20:28:03.598Z,100.00
2023-02-23T20:31:25.570Z,100.00
2023-02-23T20:34:39.274Z,100.00
2023-02-23T20:37:51.820Z,100.00
2023-02-23T20:41:04.562Z,100.00
2023-02-23T20:44:18.100Z,100.00
2023-02-23T20:47:30.141Z,100.00
2023-02-23T20:50:43.794Z,100.00
2023-02-23T20:53:57.165Z,100.00
2023-02-23T20:57:19.385Z,100.00
2023-02-23T21:00:35.624Z,100.00
2023-02-23T21:03:48.005Z,100.00
2023-02-23T21:07:00.419Z,100.00
2023-02-23T21:10:15.091Z,100.00
2023-02-23T21:13:28.803Z,100.00
2023-02-23T21:16:43.303Z,100.00
2023-02-23T21:19:55.509Z,100.00
2023-02-23T21:23:08.348Z,100.00
2023-02-23T21:26:21.818Z,100.00
2023-02-23T21:29:34.240Z,100.00
2023-02-23T21:32:47.103Z,100.00
2023-02-23T21:35:59.432Z,100.00
2023-02-23T21:39:12.877Z,100.00
2023-02-23T21:42:25.001Z,100.00
2023-02-23T21:45:38.200Z,100.00
2023-02-23T21:48:51.073Z,100.00
2023-02-23T21:52:03.588Z,100.00
2023-02-23T21:55:22.227Z,100.00
2023-02-23T21:58:32.962Z,100.00
2023-02-23T22:01:46.647Z,100.00
2023-02-23T22:04:58.811Z,100.00
2023-02-23T22:08:13.291Z,100.00
2023-02-23T22:11:28.750Z,100.00
2023-02-23T22:14:43.550Z,100.00
2023-02-23T22:17:55.636Z,100.00
2023-02-23T22:21:09.929Z,100.00
2023-02-23T22:24:23.880Z,100.00
2023-02-23T22:27:36.116Z,100.00
2023-02-23T22:30:51.216Z,100.00
2023-02-23T22:34:05.466Z,100.00
2023-02-23T22:37:19.608Z,100.00
2023-02-23T22:40:31.820Z,100.00
2023-02-23T22:43:45.808Z,100.00
2023-02-23T22:46:58.220Z,100.00
2023-02-23T22:50:14.339Z,100.00
2023-02-23T22:53:26.784Z,100.00
2023-02-23T22:56:42.031Z,100.00
2023-02-23T23:00:00.824Z,100.00
2023-02-23T23:03:13.265Z,100.00
2023-02-23T23:06:26.978Z,100.00
2023-02-23T23:09:40.109Z,100.00
2023-02-23T23:12:52.510Z,100.00
2023-02-23T23:16:09.231Z,100.00
2023-02-23T23:19:23.926Z,100.00
2023-02-23T23:22:36.619Z,100.00
2023-02-23T23:25:52.204Z,100.00
2023-02-23T23:29:09.913Z,100.00
2023-02-23T23:32:26.907Z,100.00
2023-02-23T23:35:38.034Z,100.00
2023-02-23T23:38:50.945Z,100.00
2023-02-23T23:42:05.410Z,100.00
2023-02-23T23:45:24.599Z,100.00
2023-02-23T23:48:36.587Z,100.00
2023-02-23T23:51:52.168Z,100.00
2023-02-23T23:55:04.803Z,100.00
2023-02-23T23:58:18.549Z,100.00
